createdAt,value
2019-05-16T00:01:00.164Z,11.40
2019-05-16T00:03:34.902Z,11.30
2019-05-16T00:06:09.751Z,11.30
2019-05-16T00:08:47.624Z,11.10
2019-05-16T00:11:22.067Z,10.80
2019-05-16T00:13:57.840Z,10.90
2019-05-16T00:16:32.878Z,11.00
2019-05-16T00:19:09.071Z,10.80
2019-05-16T00:21:44.101Z,10.90
2019-05-16T00:24:18.844Z,11.10
2019-05-16T00:26:53.612Z,10.90
2019-05-16T00:29:28.418Z,10.90
2019-05-16T00:32:03.263Z,10.80
2019-05-16T00:34:38.512Z,10.70
2019-05-16T00:37:14.667Z,10.80
2019-05-16T00:39:49.421Z,10.80
2019-05-16T00:42:24.195Z,10.80
2019-05-16T00:44:59.083Z,10.70
2019-05-16T00:47:34.175Z,10.50
2019-05-16T00:50:09.192Z,10.60
2019-05-16T00:52:44.074Z,10.60
2019-05-16T00:55:18.955Z,10.60
2019-05-16T00:57:53.787Z,10.50
2019-05-16T01:00:49.382Z,10.40
2019-05-16T01:03:22.851Z,10.50
2019-05-16T01:05:58.238Z,10.30
2019-05-16T01:08:34.023Z,10.40
2019-05-16T01:11:08.908Z,10.40
2019-05-16T01:13:43.834Z,10.30
2019-05-16T01:16:18.835Z,10.20
2019-05-16T01:18:54.664Z,10.30
2019-05-16T01:21:29.399Z,10.40
2019-05-16T01:24:04.310Z,9.80
2019-05-16T01:26:39.340Z,9.90
2019-05-16T01:29:14.119Z,9.90
2019-05-16T01:31:48.843Z,9.90
2019-05-16T01:34:24.568Z,9.90
2019-05-16T01:36:59.283Z,9.90
2019-05-16T01:39:34.178Z,9.90
2019-05-16T01:42:08.987Z,9.60
2019-05-16T01:44:43.726Z,9.70
2019-05-16T01:47:24.640Z,9.50
2019-05-16T01:49:59.385Z,9.40
2019-05-16T01:52:34.266Z,9.40
2019-05-16T01:55:09.382Z,9.40
2019-05-16T01:57:44.142Z,9.30
2019-05-16T02:00:25.167Z,9.40
2019-05-16T02:02:57.931Z,9.50
2019-05-16T02:05:32.824Z,9.50
2019-05-16T02:08:08.901Z,9.60
2019-05-16T02:10:43.940Z,9.50
2019-05-16T02:13:18.833Z,9.30
2019-05-16T02:15:53.588Z,9.00
2019-05-16T02:18:28.865Z,9.20
2019-05-16T02:21:03.959Z,9.20
2019-05-16T02:23:38.850Z,9.20
2019-05-16T02:26:13.578Z,9.20
2019-05-16T02:28:50.525Z,9.00
2019-05-16T02:31:24.845Z,9.10
2019-05-16T02:34:01.241Z,9.20
2019-05-16T02:36:36.080Z,9.10
2019-05-16T02:39:16.954Z,9.10
2019-05-16T02:41:52.155Z,8.70
2019-05-16T02:44:27.012Z,8.80
2019-05-16T02:47:01.948Z,8.00
2019-05-16T02:49:41.636Z,8.30
2019-05-16T02:52:14.960Z,8.40
2019-05-16T02:54:51.744Z,8.50
2019-05-16T02:57:26.121Z,8.70
2019-05-16T03:00:02.067Z,8.70
2019-05-16T03:02:37.404Z,8.70
2019-05-16T03:05:12.889Z,8.70
2019-05-16T03:07:51.838Z,8.70
2019-05-16T03:10:24.982Z,8.80
2019-05-16T03:13:00.825Z,8.70
2019-05-16T03:15:36.078Z,8.40
2019-05-16T03:18:14.022Z,8.40
2019-05-16T03:20:51.156Z,8.40
2019-05-16T03:23:26.092Z,8.20
2019-05-16T03:26:01.270Z,8.30
2019-05-16T03:28:36.136Z,8.40
2019-05-16T03:31:15.047Z,8.30
2019-05-16T03:33:52.099Z,8.40
2019-05-16T03:36:25.831Z,8.40
2019-05-16T03:39:01.350Z,8.40
2019-05-16T03:41:37.536Z,8.40
2019-05-16T03:44:12.427Z,8.20
2019-05-16T03:46:47.151Z,8.30
2019-05-16T03:49:21.915Z,8.30
2019-05-16T03:51:56.660Z,8.20
2019-05-16T03:54:31.726Z,8.20
2019-05-16T03:57:06.697Z,8.10
2019-05-16T03:59:41.501Z,8.20
2019-05-16T04:02:16.340Z,8.20
2019-05-16T04:04:51.358Z,8.20
2019-05-16T04:07:26.243Z,8.20
2019-05-16T04:10:02.153Z,8.30
2019-05-16T04:12:41.478Z,8.30
2019-05-16T04:15:14.880Z,8.20
2019-05-16T04:17:51.328Z,8.20
2019-05-16T04:20:26.125Z,8.20
2019-05-16T04:23:01.214Z,8.20
2019-05-16T04:25:36.222Z,8.20
2019-05-16T04:28:11.665Z,8.10
2019-05-16T04:30:46.517Z,8.10
2019-05-16T04:33:22.234Z,7.80
2019-05-16T04:36:00.913Z,7.70
2019-05-16T04:38:41.305Z,7.50
2019-05-16T04:41:11.889Z,7.40
2019-05-16T04:43:46.820Z,7.70
2019-05-16T04:46:22.788Z,7.70
2019-05-16T04:49:01.445Z,7.70
2019-05-16T04:51:34.374Z,7.90
2019-05-16T04:54:11.434Z,7.90
2019-05-16T04:56:51.140Z,7.90
2019-05-16T04:59:24.601Z,7.90
2019-05-16T05:02:02.102Z,7.80
2019-05-16T05:04:35.868Z,7.70
2019-05-16T05:07:14.052Z,8.00
2019-05-16T05:09:51.382Z,7.80
2019-05-16T05:12:25.708Z,8.00
2019-05-16T05:15:01.356Z,8.00
2019-05-16T05:17:36.465Z,8.30
2019-05-16T05:20:11.747Z,8.60
2019-05-16T05:22:46.491Z,8.60
2019-05-16T05:25:21.220Z,8.90
2019-05-16T05:27:56.007Z,9.00
2019-05-16T05:30:30.743Z,9.10
2019-05-16T05:33:05.629Z,9.20
2019-05-16T05:35:40.833Z,9.30
2019-05-16T05:38:15.810Z,9.20
2019-05-16T05:40:51.326Z,9.30
2019-05-16T05:43:26.344Z,9.50
2019-05-16T05:46:01.071Z,9.70
2019-05-16T05:48:35.879Z,9.90
2019-05-16T05:51:11.224Z,9.80
2019-05-16T05:53:46.355Z,9.90
2019-05-16T05:56:21.168Z,9.90
2019-05-16T05:58:58.195Z,10.00
2019-05-16T06:01:32.356Z,10.30
2019-05-16T06:04:07.191Z,10.40
2019-05-16T06:06:44.976Z,10.20
2019-05-16T06:09:28.909Z,10.30
2019-05-16T06:11:55.063Z,10.40
2019-05-16T06:14:30.657Z,10.20
2019-05-16T06:17:05.646Z,10.50
2019-05-16T06:19:40.504Z,10.60
2019-05-16T06:22:15.232Z,10.80
2019-05-16T06:24:50.427Z,10.80
2019-05-16T06:27:25.472Z,10.90
2019-05-16T06:30:00.674Z,10.70
2019-05-16T06:32:35.468Z,10.40
2019-05-16T06:35:10.577Z,10.60
2019-05-16T06:37:46.392Z,10.70
2019-05-16T06:40:21.225Z,10.90
2019-05-16T06:42:55.976Z,10.90
2019-05-16T06:45:32.054Z,11.10
2019-05-16T06:48:06.998Z,11.00
2019-05-16T06:50:41.837Z,11.10
2019-05-16T06:53:16.648Z,11.40
2019-05-16T06:55:51.543Z,11.40
2019-05-16T06:58:26.291Z,11.10
2019-05-16T07:01:03.702Z,11.00
2019-05-16T07:03:39.700Z,11.10
2019-05-16T07:06:37.822Z,11.00
2019-05-16T07:08:50.992Z,11.20
2019-05-16T07:11:25.869Z,11.30
2019-05-16T07:14:00.697Z,11.30
2019-05-16T07:16:35.861Z,11.50
2019-05-16T07:19:10.735Z,11.50
2019-05-16T07:21:45.616Z,11.40
2019-05-16T07:24:20.363Z,11.40
2019-05-16T07:26:55.108Z,11.60
2019-05-16T07:29:30.819Z,11.70
2019-05-16T07:32:05.929Z,11.90
2019-05-16T07:34:40.705Z,12.00
2019-05-16T07:37:15.614Z,11.90
2019-05-16T07:39:51.153Z,12.20
2019-05-16T07:42:26.259Z,12.50
2019-05-16T07:45:01.095Z,12.70
2019-05-16T07:47:35.920Z,12.90
2019-05-16T07:50:10.819Z,13.10
2019-05-16T07:52:45.648Z,13.00
2019-05-16T07:55:21.040Z,13.10
2019-05-16T07:57:57.193Z,13.20
2019-05-16T08:00:47.881Z,13.20
2019-05-16T08:03:10.515Z,13.20
2019-05-16T08:05:46.391Z,13.20
2019-05-16T08:08:24.319Z,12.90
2019-05-16T08:10:57.654Z,13.00
2019-05-16T08:13:32.393Z,13.30
2019-05-16T08:16:10.058Z,13.60
2019-05-16T08:18:45.209Z,14.00
2019-05-16T08:21:20.463Z,14.10
2019-05-16T08:23:55.476Z,14.10
2019-05-16T08:26:32.380Z,14.10
2019-05-16T08:29:06.963Z,13.80
2019-05-16T08:34:20.877Z,13.80
2019-05-16T08:36:54.749Z,13.40
2019-05-16T08:39:31.048Z,13.30
2019-05-16T08:42:08.507Z,13.50
2019-05-16T08:44:42.676Z,13.60
2019-05-16T08:47:21.110Z,13.50
2019-05-16T08:49:53.904Z,13.40
2019-05-16T08:52:31.547Z,13.10
2019-05-16T08:55:07.444Z,13.40
2019-05-16T08:57:43.254Z,13.60
2019-05-16T09:00:21.758Z,13.60
2019-05-16T09:02:54.817Z,13.70
2019-05-16T09:05:31.556Z,13.70
2019-05-16T09:08:06.032Z,13.60
2019-05-16T09:10:55.626Z,13.60
2019-05-16T09:13:17.615Z,13.60
2019-05-16T09:15:52.538Z,13.50
2019-05-16T09:18:29.060Z,13.40
2019-05-16T09:18:38.498Z,13.60
2019-05-16T09:21:03.875Z,13.30
2019-05-16T09:23:38.694Z,13.40
2019-05-16T09:26:16.138Z,13.60
2019-05-16T09:28:50.011Z,13.60
2019-05-16T09:31:27.381Z,13.60
2019-05-16T09:34:01.405Z,13.60
2019-05-16T09:36:37.180Z,13.70
2019-05-16T09:39:12.408Z,13.70
2019-05-16T09:41:58.601Z,13.70
2019-05-16T09:44:23.579Z,13.70
2019-05-16T09:46:58.336Z,13.70
2019-05-16T09:49:33.233Z,13.70
2019-05-16T09:52:08.052Z,13.40
2019-05-16T09:54:42.774Z,13.40
2019-05-16T09:57:17.662Z,13.20
2019-05-16T09:59:52.644Z,13.30
2019-05-16T10:02:27.620Z,13.50
2019-05-16T10:05:02.577Z,13.60
2019-05-16T10:07:39.039Z,13.60
2019-05-16T10:10:14.167Z,13.60
2019-05-16T10:12:49.081Z,13.70
2019-05-16T10:15:23.947Z,13.70
2019-05-16T10:17:58.698Z,13.70
2019-05-16T10:20:33.525Z,13.90
2019-05-16T10:23:14.228Z,14.00
2019-05-16T10:25:47.710Z,14.00
2019-05-16T10:28:21.408Z,14.10
2019-05-16T10:30:56.871Z,14.30
2019-05-16T10:33:31.954Z,14.40
2019-05-16T10:36:08.444Z,14.30
2019-05-16T10:38:43.293Z,14.30
2019-05-16T10:41:18.112Z,14.20
2019-05-16T10:43:52.931Z,14.30
2019-05-16T10:46:27.652Z,14.50
2019-05-16T10:49:02.504Z,14.70
2019-05-16T10:51:37.844Z,14.50
2019-05-16T10:54:14.327Z,14.60
2019-05-16T10:56:49.491Z,14.40
2019-05-16T10:59:54.415Z,14.30
2019-05-16T11:02:00.924Z,14.20
2019-05-16T11:04:52.653Z,14.30
2019-05-16T11:07:12.342Z,14.40
2019-05-16T11:09:55.806Z,14.60
2019-05-16T11:12:44.662Z,14.60
2019-05-16T11:15:00.147Z,14.40
2019-05-16T11:17:36.913Z,14.40
2019-05-16T11:20:12.935Z,14.50
2019-05-16T11:22:47.917Z,14.50
2019-05-16T11:25:28.660Z,14.70
2019-05-16T11:27:59.451Z,14.70
2019-05-16T11:30:37.328Z,14.90
2019-05-16T11:33:10.794Z,14.90
2019-05-16T11:35:47.605Z,15.00
2019-05-16T11:38:22.192Z,15.20
2019-05-16T11:40:57.027Z,15.00
2019-05-16T11:43:31.917Z,15.20
2019-05-16T11:46:07.692Z,15.30
2019-05-16T11:48:42.624Z,15.20
2019-05-16T11:51:17.729Z,15.20
2019-05-16T11:53:53.440Z,15.10
2019-05-16T11:56:28.254Z,15.20
2019-05-16T11:59:03.081Z,15.30
2019-05-16T12:01:38.073Z,15.30
2019-05-16T12:04:12.880Z,15.40
2019-05-16T12:06:47.751Z,15.30
2019-05-16T12:09:22.732Z,15.30
2019-05-16T12:12:04.313Z,15.40
2019-05-16T12:14:34.060Z,15.60
2019-05-16T12:17:09.158Z,15.60
2019-05-16T12:19:48.240Z,15.60
2019-05-16T12:22:23.931Z,15.40
2019-05-16T12:25:07.897Z,15.60
2019-05-16T12:27:44.120Z,15.80
2019-05-16T12:30:27.232Z,15.60
2019-05-16T12:33:08.510Z,15.60
2019-05-16T12:35:43.450Z,16.00
2019-05-16T12:38:18.483Z,16.00
2019-05-16T12:40:53.320Z,15.80
2019-05-16T12:43:44.840Z,15.90
2019-05-16T12:46:07.172Z,15.90
2019-05-16T12:48:41.339Z,15.90
2019-05-16T12:51:17.229Z,16.00
2019-05-16T12:53:53.244Z,16.00
2019-05-16T12:56:29.009Z,15.90
2019-05-16T12:59:03.906Z,16.00
2019-05-16T13:01:38.773Z,16.10
2019-05-16T13:04:13.608Z,16.20
2019-05-16T13:06:48.426Z,16.00
2019-05-16T13:09:23.172Z,15.90
2019-05-16T13:11:57.993Z,15.90
2019-05-16T13:14:32.816Z,16.10
2019-05-16T13:17:07.632Z,16.20
2019-05-16T13:19:44.517Z,16.30
2019-05-16T13:22:18.902Z,16.40
2019-05-16T13:24:53.783Z,16.30
2019-05-16T13:27:28.694Z,16.40
2019-05-16T13:30:07.275Z,16.50
2019-05-16T13:32:41.387Z,16.80
2019-05-16T13:35:17.053Z,16.60
2019-05-16T13:37:53.051Z,16.70
2019-05-16T13:40:27.808Z,16.70
2019-05-16T13:43:02.635Z,16.90
2019-05-16T13:45:37.850Z,16.90
2019-05-16T13:48:13.008Z,17.10
2019-05-16T13:50:47.827Z,17.20
2019-05-16T13:53:22.739Z,17.20
2019-05-16T13:55:57.580Z,17.20
2019-05-16T13:58:32.304Z,17.10
2019-05-16T14:01:07.814Z,17.10
2019-05-16T14:03:42.881Z,17.20
2019-05-16T14:06:18.594Z,17.40
2019-05-16T14:08:53.507Z,17.50
2019-05-16T14:11:28.339Z,17.30
2019-05-16T14:14:04.976Z,17.10
2019-05-16T14:16:39.868Z,17.10
2019-05-16T14:19:17.288Z,17.10
2019-05-16T14:21:52.129Z,17.10
2019-05-16T14:24:28.170Z,17.00
2019-05-16T14:27:03.285Z,17.30
2019-05-16T14:29:38.499Z,17.40
2019-05-16T14:32:13.329Z,17.30
2019-05-16T14:34:51.505Z,17.30
2019-05-16T14:37:26.835Z,17.30
2019-05-16T14:40:02.162Z,17.30
2019-05-16T14:42:38.692Z,17.30
2019-05-16T14:45:18.282Z,17.10
2019-05-16T14:47:53.289Z,17.30
2019-05-16T14:50:28.141Z,17.30
2019-05-16T14:53:03.038Z,17.60
2019-05-16T14:55:38.540Z,17.50
2019-05-16T14:58:13.535Z,17.70
2019-05-16T15:00:49.428Z,17.50
2019-05-16T15:03:27.134Z,17.30
2019-05-16T15:06:00.861Z,17.20
2019-05-16T15:08:35.613Z,17.20
2019-05-16T15:11:10.367Z,17.30
2019-05-16T15:13:45.096Z,17.40
2019-05-16T15:16:19.925Z,17.50
2019-05-16T15:18:54.656Z,17.50
2019-05-16T15:21:29.400Z,17.40
2019-05-16T15:24:14.014Z,17.30
2019-05-16T15:26:49.769Z,17.50
2019-05-16T15:29:26.952Z,17.60
2019-05-16T15:32:01.461Z,17.30
2019-05-16T15:34:38.033Z,17.20
2019-05-16T15:37:12.789Z,17.40
2019-05-16T15:39:47.779Z,17.30
2019-05-16T15:42:22.738Z,17.40
2019-05-16T15:44:57.556Z,17.40
2019-05-16T15:47:32.473Z,17.50
2019-05-16T15:50:08.274Z,17.40
2019-05-16T15:52:44.615Z,17.40
2019-05-16T15:55:20.867Z,17.50
2019-05-16T15:57:55.987Z,17.40
2019-05-16T16:00:57.992Z,17.40
2019-05-16T16:03:32.640Z,17.40
2019-05-16T16:06:07.471Z,17.40
2019-05-16T16:08:42.437Z,17.60
2019-05-16T16:11:17.369Z,17.50
2019-05-16T16:13:52.269Z,17.50
2019-05-16T16:16:27.095Z,17.50
2019-05-16T16:19:01.903Z,17.60
2019-05-16T16:21:37.966Z,17.50
2019-05-16T16:24:12.948Z,17.50
2019-05-16T16:26:47.802Z,17.60
2019-05-16T16:29:22.622Z,17.60
2019-05-16T16:31:57.459Z,17.60
2019-05-16T16:34:32.245Z,17.60
2019-05-16T16:37:07.712Z,17.50
2019-05-16T16:39:42.689Z,17.40
2019-05-16T16:42:17.447Z,17.50
2019-05-16T16:44:52.172Z,17.50
2019-05-16T16:47:27.131Z,17.50
2019-05-16T16:50:02.016Z,17.50
2019-05-16T16:52:37.805Z,17.60
2019-05-16T16:55:16.985Z,17.80
2019-05-16T16:57:55.584Z,17.70
2019-05-16T17:00:28.324Z,17.60
2019-05-16T17:03:07.163Z,17.70
2019-05-16T17:05:40.504Z,17.80
2019-05-16T17:08:16.824Z,17.70
2019-05-16T17:10:51.993Z,17.70
2019-05-16T17:13:27.585Z,17.60
2019-05-16T17:16:02.537Z,17.60
2019-05-16T17:18:37.352Z,17.80
2019-05-16T17:21:12.301Z,17.60
2019-05-16T17:23:47.151Z,17.70
2019-05-16T17:26:21.947Z,17.80
2019-05-16T17:28:57.788Z,17.90
2019-05-16T17:31:32.726Z,17.90
2019-05-16T17:34:08.296Z,17.60
2019-05-16T17:36:43.627Z,17.70
2019-05-16T17:39:18.465Z,17.70
2019-05-16T17:42:12.467Z,17.70
2019-05-16T17:44:47.437Z,17.50
2019-05-16T17:47:22.296Z,17.60
2019-05-16T17:49:57.052Z,17.60
2019-05-16T17:52:31.793Z,17.40
2019-05-16T17:55:07.576Z,17.50
2019-05-16T17:57:43.983Z,17.60
2019-05-16T18:00:25.223Z,17.60
2019-05-16T18:02:57.082Z,17.40
2019-05-16T18:05:41.128Z,17.50
2019-05-16T18:08:26.714Z,17.30
2019-05-16T18:11:02.705Z,17.40
2019-05-16T18:13:46.445Z,17.50
2019-05-16T18:16:23.059Z,17.60
2019-05-16T18:19:07.353Z,17.60
2019-05-16T18:21:49.001Z,17.70
2019-05-16T18:24:51.607Z,17.70
2019-05-16T18:27:34.257Z,17.70
2019-05-16T18:30:16.430Z,17.70
2019-05-16T18:32:56.081Z,17.70
2019-05-16T18:35:39.760Z,17.70
2019-05-16T18:38:15.292Z,17.70
2019-05-16T18:40:50.150Z,17.50
2019-05-16T18:43:27.041Z,17.50
2019-05-16T18:46:01.600Z,17.40
2019-05-16T18:48:36.665Z,17.40
2019-05-16T18:51:11.668Z,17.30
2019-05-16T18:53:46.669Z,17.30
2019-05-16T18:56:21.431Z,17.20
2019-05-16T18:58:57.258Z,17.20
2019-05-16T19:01:33.533Z,17.10
2019-05-16T19:04:08.273Z,17.20
2019-05-16T19:06:44.056Z,17.10
2019-05-16T19:09:18.825Z,17.10
2019-05-16T19:11:53.660Z,17.10
2019-05-16T19:14:28.400Z,17.10
2019-05-16T19:17:03.319Z,17.10
2019-05-16T19:19:38.200Z,17.10
2019-05-16T19:22:13.103Z,17.10
2019-05-16T19:24:47.929Z,17.20
2019-05-16T19:27:22.892Z,17.10
2019-05-16T19:29:57.835Z,17.00
2019-05-16T19:32:33.352Z,17.10
2019-05-16T19:35:08.712Z,17.00
2019-05-16T19:37:44.158Z,17.00
2019-05-16T19:40:19.819Z,16.90
2019-05-16T19:43:14.000Z,17.00
2019-05-16T19:45:49.022Z,16.90
2019-05-16T19:48:26.529Z,16.90
2019-05-16T19:51:01.470Z,16.90
2019-05-16T19:53:36.754Z,16.90
2019-05-16T19:56:13.054Z,16.90
2019-05-16T19:58:47.973Z,16.90
2019-05-16T20:01:22.864Z,16.70
2019-05-16T20:03:57.998Z,16.70
2019-05-16T20:06:33.220Z,16.80
2019-05-16T20:09:09.031Z,16.80
2019-05-16T20:12:03.562Z,16.60
2019-05-16T20:14:38.791Z,16.60
2019-05-16T20:17:13.719Z,16.70
2019-05-16T20:19:48.618Z,16.80
2019-05-16T20:22:23.516Z,16.90
2019-05-16T20:24:58.431Z,16.60
2019-05-16T20:27:33.822Z,16.60
2019-05-16T20:30:10.023Z,16.70
2019-05-16T20:32:45.651Z,16.70
2019-05-16T20:35:40.002Z,16.50
2019-05-16T20:38:17.340Z,16.30
2019-05-16T20:40:52.003Z,16.50
2019-05-16T20:43:26.818Z,16.50
2019-05-16T20:46:01.633Z,16.50
2019-05-16T20:48:36.872Z,16.50
2019-05-16T20:51:11.862Z,16.50
2019-05-16T20:53:49.699Z,16.50
2019-05-16T20:56:23.331Z,16.40
2019-05-16T20:58:58.148Z,16.40
2019-05-16T21:01:33.037Z,16.40
2019-05-16T21:04:08.743Z,16.30
2019-05-16T21:06:57.154Z,16.40
2019-05-16T21:09:20.163Z,16.10
2019-05-16T21:11:56.982Z,16.20
2019-05-16T21:14:32.392Z,16.20
2019-05-16T21:17:07.291Z,16.20
2019-05-16T21:19:42.121Z,16.20
2019-05-16T21:22:19.310Z,16.20
2019-05-16T21:24:53.387Z,16.20
2019-05-16T21:27:28.257Z,16.00
2019-05-16T21:30:03.175Z,16.10
2019-05-16T21:32:37.978Z,15.80
2019-05-16T21:35:12.792Z,15.90
2019-05-16T21:37:47.633Z,15.90
2019-05-16T21:40:22.427Z,15.80
2019-05-16T21:42:58.819Z,15.90
2019-05-16T21:45:33.923Z,15.90
2019-05-16T21:48:09.016Z,15.90
2019-05-16T21:50:46.173Z,15.80
2019-05-16T21:53:20.391Z,15.80
2019-05-16T21:55:56.360Z,15.80
2019-05-16T21:58:31.332Z,15.50
2019-05-16T22:01:08.490Z,15.50
2019-05-16T22:03:46.996Z,15.60
2019-05-16T22:06:21.548Z,15.70
2019-05-16T22:08:57.375Z,15.60
2019-05-16T22:11:32.499Z,15.60
2019-05-16T22:14:07.826Z,15.70
2019-05-16T22:16:43.432Z,15.20
2019-05-16T22:19:18.341Z,14.70
2019-05-16T22:21:53.528Z,14.90
2019-05-16T22:24:28.376Z,14.90
2019-05-16T22:27:03.156Z,15.10
2019-05-16T22:29:40.029Z,15.10
2019-05-16T22:32:16.484Z,15.10
2019-05-16T22:34:51.380Z,15.20
2019-05-16T22:37:26.528Z,15.20
2019-05-16T22:40:02.389Z,15.20
2019-05-16T22:42:38.293Z,15.20
2019-05-16T22:45:17.577Z,15.30
2019-05-16T22:47:52.916Z,15.20
2019-05-16T22:50:27.827Z,15.20
2019-05-16T22:53:02.591Z,15.10
2019-05-16T22:55:37.424Z,14.70
2019-05-16T22:58:12.175Z,14.60
2019-05-16T23:00:47.148Z,14.40
2019-05-16T23:03:22.864Z,14.30
2019-05-16T23:05:57.700Z,14.30
2019-05-16T23:08:32.513Z,14.20
2019-05-16T23:11:07.568Z,14.20
2019-05-16T23:13:42.458Z,14.20
2019-05-16T23:16:17.339Z,14.30
2019-05-16T23:18:52.151Z,14.30
2019-05-16T23:21:27.709Z,14.30
2019-05-16T23:24:02.659Z,14.30
2019-05-16T23:26:37.467Z,14.20
2019-05-16T23:29:12.232Z,13.90
2019-05-16T23:31:47.368Z,13.80
2019-05-16T23:34:22.240Z,13.80
2019-05-16T23:36:57.151Z,13.80
2019-05-16T23:39:32.281Z,13.70
2019-05-16T23:42:07.092Z,13.70
2019-05-16T23:44:42.803Z,13.70
2019-05-16T23:47:17.665Z,13.80
2019-05-16T23:49:52.741Z,13.70
2019-05-16T23:52:27.560Z,13.70
2019-05-16T23:55:02.298Z,13.80
2019-05-16T23:57:37.445Z,13.80
